Aviation Digital Data Service (ADDS)

Output produced by METARs form (0516 UTC 27 March 2015)
found at http://www.aviationweather.gov/adds/metars/
 
KSBY 270454Z AUTO 28006KT 10SM OVC027 15/14 A2969 RMK AO2 SLPNO T01500139
KSBY 262343Z 2700/2724 20012KT P6SM BKN250 
     FM270600 32012G20KT P6SM -RA OVC015 
     FM271100 35010KT 4SM -RA BR OVC012 
     FM272000 33010KT 5SM -RA BR OVC015